Time;durP1;ratioP1;P1;durP2;ratioP2;P2;SDS_P1;SDS_P2;PMS_P1;PMS_P2;Temp;Humidity;BMP_temperature;BMP_pressure;BME280_temperature;BME280_humidity;BME280_pressure;Samples;Min_cycle;Max_cycle;Signal;HPM_P1;HPM_P2
2022/03/21 00:04:32;;;;;;;8.40;6.40;;;12.10;33.40;;;13.42;28.91;99969.31;4848909;29;125053;-77
2022/03/21 00:10:44;;;;;;;6.53;5.37;;;12.20;33.80;;;13.30;29.12;99993.94;4830539;29;115323;-78
2022/03/21 00:16:57;;;;;;;7.27;6.50;;;11.40;33.40;;;13.22;28.93;99990.69;4830134;29;125083;-78
2022/03/21 00:23:06;;;;;;;7.27;6.00;;;11.90;34.10;;;13.15;29.30;99984.69;4829587;29;116357;-78
2022/03/21 01:08:10;;;;;;;9.00;6.77;;;11.90;36.30;;;12.31;30.54;99985.25;5561104;23;98823;-77
2022/03/21 01:14:19;;;;;;;11.40;7.77;;;10.20;35.20;;;12.24;30.88;99995.84;4829341;29;125179;-78
2022/03/21 01:20:28;;;;;;;6.63;5.90;;;10.70;36.10;;;12.13;30.99;99992.38;4829221;29;116272;-78
2022/03/21 06:08:45;;;;;;;9.33;6.53;;;9.20;43.30;;;10.01;35.27;100146.91;4847272;29;115327;-80
2022/03/21 06:14:53;;;;;;;7.80;5.93;;;8.10;42.40;;;10.03;35.47;100147.47;4828564;29;125225;-78
2022/03/21 06:21:06;;;;;;;9.30;6.53;;;8.20;42.30;;;10.04;34.90;100149.09;4827207;29;116153;-79
2022/03/21 06:27:15;;;;;;;7.10;5.53;;;8.20;42.10;;;10.07;35.18;100156.84;4827442;29;125297;-79
2022/03/21 06:33:29;;;;;;;8.50;5.60;;;8.90;42.50;;;10.22;34.70;100169.00;4827859;29;115343;-84
2022/03/21 06:39:38;;;;;;;9.57;6.17;;;8.80;42.20;;;10.25;34.47;100162.94;4827720;29;125233;-79
2022/03/21 06:45:51;;;;;;;8.43;6.27;;;8.40;41.50;;;10.32;34.80;100152.47;4828301;29;115244;-79
2022/03/21 06:52:04;;;;;;;7.80;5.57;;;10.90;42.50;;;10.37;34.16;100149.72;4827418;29;125136;-79
2022/03/21 06:58:13;;;;;;;7.80;6.20;;;8.40;41.00;;;10.44;34.22;100152.16;4862460;28;115246;-79
2022/03/21 07:04:41;;;;;;;8.97;5.83;;;9.70;41.80;;;10.55;33.79;100159.34;4833405;29;125136;-85
2022/03/21 07:10:50;;;;;;;9.63;6.43;;;9.30;41.20;;;10.64;33.78;100174.25;4857699;28;115251;-82
2022/03/21 07:16:58;;;;;;;7.53;6.03;;;10.00;41.00;;;10.82;33.77;100173.63;4864539;28;125235;-81
2022/03/21 07:23:08;;;;;;;9.60;6.80;;;10.00;40.60;;;11.01;33.57;100176.63;4864599;28;117093;-81
2022/03/21 07:28:19;;;;;;;7.90;6.57;;;10.40;40.80;;;11.18;33.26;100173.53;5301693;23;125006;-78
2022/03/21 07:34:28;;;;;;;8.33;7.30;;;10.20;40.50;;;11.31;33.76;100185.94;4827685;29;115324;-82
2022/03/21 07:40:44;;;;;;;11.30;8.13;;;10.60;42.00;;;11.51;33.79;100185.00;4827299;29;125101;-88
2022/03/21 07:53:23;;;;;;;12.57;8.30;;;9.60;41.40;;;11.84;33.36;100188.16;4836537;29;125101;-83
2022/03/21 07:56:11;;;;;;;10.57;7.57;;;10.90;41.30;;;11.90;33.25;100185.09;4848249;29;124340;-89
2022/03/21 08:02:21;;;;;;;9.40;6.83;;;11.10;40.90;;;12.03;32.79;100199.41;4847503;29;115156;-92
2022/03/21 08:05:46;;;;;;;8.70;6.70;;;12.70;42.00;;;12.06;32.83;100199.69;4816973;29;123832;-91
2022/03/21 08:08:39;;;;;;;10.37;8.40;;;11.40;40.60;;;12.07;32.43;100195.78;4825947;29;124424;-84
2022/03/21 08:18:30;;;;;;;8.73;6.40;;;9.90;39.70;;;12.19;32.73;100209.25;4830836;29;125294;-88
2022/03/21 08:24:38;;;;;;;9.80;7.83;;;11.60;40.10;;;12.32;32.40;100197.50;5043750;23;115683;-86
2022/03/21 08:27:06;;;;;;;11.60;7.83;;;11.10;39.20;;;12.38;32.20;100193.59;4848531;29;114579;-90
2022/03/21 08:29:35;;;;;;;11.63;7.17;;;13.30;41.20;;;12.45;32.30;100187.72;4840126;29;123014;-91
2022/03/21 08:36:22;;;;;;;6.97;6.27;;;11.80;39.80;;;12.56;31.89;100194.81;4842069;29;114541;-90
2022/03/21 08:38:49;;;;;;;9.80;6.33;;;11.80;39.60;;;12.62;32.01;100184.50;4807882;29;111909;-85
2022/03/21 08:41:34;;;;;;;7.77;6.30;;;11.90;39.40;;;12.70;31.73;100186.63;4751512;29;123746;-91
2022/03/21 08:44:22;;;;;;;8.50;6.60;;;12.00;39.70;;;12.76;31.84;100182.72;4787797;29;122054;-78
2022/03/21 08:50:30;;;;;;;9.27;5.87;;;12.00;39.40;;;12.88;31.57;100182.31;4790188;29;116452;-92
2022/03/21 08:53:55;;;;;;;8.60;6.80;;;12.10;39.60;;;12.95;31.29;100184.72;4789206;29;123548;-90
2022/03/21 09:00:07;;;;;;;10.43;7.47;;;10.60;37.90;;;13.04;31.33;100172.69;4810022;29;115355;-88
2022/03/21 09:02:55;;;;;;;9.30;6.23;;;13.40;40.20;;;13.12;31.33;100175.94;4809944;29;113936;-79
2022/03/21 09:05:22;;;;;;;12.13;8.67;;;13.20;40.00;;;13.18;31.44;100170.03;4793507;29;123869;-81
2022/03/21 09:07:54;;;;;;;7.83;6.70;;;12.30;39.00;;;13.24;31.13;100179.09;4805957;29;124321;-91
2022/03/21 09:10:21;;;;;;;14.17;9.80;;;12.40;39.10;;;13.28;30.84;100171.06;4818427;29;113822;-91
2022/03/21 09:16:30;;;;;;;12.63;8.77;;;12.50;38.90;;;13.35;31.21;100166.81;4828722;29;125145;-83
2022/03/21 09:18:58;;;;;;;10.63;8.07;;;12.50;38.70;;;13.39;31.16;100172.59;4828811;29;124335;-82
2022/03/21 09:21:44;;;;;;;10.83;8.20;;;12.60;38.90;;;13.46;31.15;100167.50;4809319;29;114581;-91
2022/03/21 09:24:29;;;;;;;11.50;7.60;;;12.70;38.90;;;13.54;30.93;100174.31;4824188;29;113606;-82
2022/03/21 09:26:57;;;;;;;9.10;6.90;;;12.70;38.90;;;13.61;30.93;100169.22;4807677;29;124904;-87
2022/03/21 09:30:22;;;;;;;8.43;6.40;;;12.80;38.90;;;13.69;31.09;100169.38;4824607;29;124305;-91
2022/03/21 09:36:33;;;;;;;9.43;6.67;;;12.80;38.80;;;13.79;30.83;100168.41;4828211;29;114897;-93
2022/03/21 09:39:03;;;;;;;10.47;6.77;;;12.90;38.80;;;13.86;30.71;100165.25;4808225;29;124116;-91
2022/03/21 09:41:31;;;;;;;8.77;6.57;;;12.40;38.30;;;13.93;30.81;100158.19;4825166;29;123054;-91
2022/03/21 09:44:35;;;;;;;10.10;7.30;;;13.00;38.60;;;14.00;30.63;100157.81;4828502;29;114602;-81
2022/03/21 09:50:35;;;;;;;11.17;7.20;;;14.00;39.40;;;14.12;30.59;100157.34;4823918;29;125234;-91
2022/03/21 09:56:44;;;;;;;14.37;9.20;;;13.40;38.60;;;14.22;30.25;100164.72;4828229;29;115310;-90
2022/03/21 10:02:53;;;;;;;10.23;7.47;;;13.50;38.40;;;14.31;30.38;100151.75;4825938;29;124530;-92
2022/03/21 10:09:14;;;;;;;8.33;6.83;;;13.50;38.40;;;14.48;30.37;100146.47;4846706;29;114767;-82
2022/03/21 10:11:58;;;;;;;9.55;6.65;;;13.60;38.60;;;14.55;30.44;100146.91;4826548;29;114567;-91
2022/03/21 10:14:44;;;;;;;9.47;6.60;;;13.70;38.70;;;14.65;30.40;100142.28;4816060;29;124664;-92
2022/03/21 10:17:22;;;;;;;12.10;9.13;;;14.70;39.40;;;14.70;30.11;100143.03;4804843;29;124344;-91
2022/03/21 10:20:11;;;;;;;11.83;9.20;;;13.90;38.50;;;14.75;30.16;100142.13;4808822;29;114959;-90
2022/03/21 10:28:58;;;;;;;12.30;8.30;;;12.60;37.20;;;14.94;30.33;100137.28;4845166;29;124945;-82
2022/03/21 10:35:46;;;;;;;7.97;7.17;;;14.30;38.70;;;15.14;30.18;100135.19;4831926;29;114601;-93
2022/03/21 10:38:33;;;;;;;9.70;7.00;;;14.30;38.50;;;15.22;29.97;100134.47;4819219;29;122852;-90
2022/03/21 10:41:58;;;;;;;10.23;8.00;;;15.80;39.80;;;15.33;29.94;100137.88;4822873;29;124423;-89
2022/03/21 10:44:26;;;;;;;12.47;8.60;;;14.40;38.20;;;15.44;29.78;100131.75;4841874;29;114506;-94
2022/03/21 10:50:40;;;;;;;12.50;9.87;;;14.70;37.70;;;15.61;29.32;100136.69;4823258;29;125207;-90
2022/03/21 10:53:36;;;;;;;12.23;8.83;;;14.80;37.80;;;15.71;29.26;100121.72;4807721;29;123625;-79
2022/03/21 10:59:44;;;;;;;15.47;10.80;;;14.90;37.50;;;15.91;28.55;100126.00;4827616;29;115376;-94
2022/03/21 11:02:17;;;;;;;15.17;11.30;;;15.10;37.00;;;16.00;28.66;100128.84;4835071;29;123583;-92
2022/03/21 11:04:47;;;;;;;17.50;12.47;;;15.10;36.90;;;16.04;28.34;100124.28;4807039;29;122095;-93
2022/03/21 11:07:14;;;;;;;16.43;11.13;;;15.30;36.50;;;16.09;28.56;100115.78;4824893;29;114543;-92
2022/03/21 11:09:42;;;;;;;18.40;11.97;;;15.40;36.60;;;16.19;28.20;100123.91;4833764;29;113711;-91
2022/03/21 11:16:49;;;;;;;16.10;11.27;;;15.50;36.60;;;16.39;28.06;100113.34;4825829;29;124794;-94
2022/03/21 11:19:16;;;;;;;17.23;11.83;;;15.60;36.30;;;16.47;27.94;100115.38;4821123;29;115009;-92
2022/03/21 11:21:43;;;;;;;18.77;13.20;;;15.60;36.00;;;16.53;27.81;100112.13;4800242;29;115537;-92
2022/03/21 11:24:12;;;;;;;16.33;11.50;;;15.80;35.90;;;16.60;27.99;100108.88;4815786;29;122709;-93
2022/03/21 11:27:20;;;;;;;14.27;10.43;;;15.90;36.20;;;16.68;27.98;100104.47;4782958;29;123294;-93
2022/03/21 11:30:21;;;;;;;11.87;9.77;;;16.00;36.10;;;16.77;27.50;100097.84;4791710;29;113941;-93
2022/03/21 11:32:58;;;;;;;15.40;11.20;;;16.10;36.00;;;16.85;27.63;100103.78;4812649;29;113108;-90
2022/03/21 11:35:28;;;;;;;19.00;11.47;;;17.40;36.90;;;16.92;27.73;100098.53;4800233;29;124479;-91
2022/03/21 11:42:15;;;;;;;13.87;11.23;;;16.30;35.90;;;17.10;27.49;100094.66;4812578;29;114948;-92
2022/03/21 11:45:25;;;;;;;17.53;11.93;;;16.40;35.70;;;17.19;27.43;100087.13;4793189;29;113800;-91
2022/03/21 11:48:40;;;;;;;13.57;9.83;;;16.50;35.70;;;17.32;27.38;100090.09;4808800;29;124336;-92
2022/03/21 11:51:17;;;;;;;16.30;10.33;;;16.60;35.80;;;17.47;27.29;100084.06;4736039;29;122599;-91
2022/03/21 11:53:49;;;;;;;14.37;11.10;;;16.70;35.80;;;17.56;26.96;100089.66;4719122;29;112861;-91
2022/03/21 11:56:40;;;;;;;17.70;12.20;;;16.80;35.40;;;17.62;26.77;100078.00;4723295;29;113868;-92
2022/03/21 11:59:08;;;;;;;17.33;12.33;;;16.90;34.60;;;17.69;26.50;100076.66;4713672;29;123320;-92
2022/03/21 12:01:38;;;;;;;20.60;12.37;;;17.00;34.60;;;17.71;26.38;100077.16;4708624;29;123032;-91
2022/03/21 12:04:30;;;;;;;15.27;10.97;;;17.00;34.20;;;17.77;26.55;100075.84;4715264;29;114529;-90
2022/03/21 12:10:38;;;;;;;16.73;12.67;;;17.20;34.50;;;17.91;25.89;100068.13;4742317;29;125248;-92
2022/03/21 12:13:25;;;;;;;16.33;12.77;;;17.30;34.10;;;18.01;25.85;100061.38;4729338;29;123159;-92
2022/03/21 12:16:19;;;;;;;12.70;10.47;;;17.40;33.80;;;18.07;25.85;100052.47;4704977;29;112862;-91
2022/03/21 12:19:03;;;;;;;15.47;10.77;;;17.40;33.80;;;18.21;25.72;100054.25;4737023;29;113776;-92
2022/03/21 12:22:25;;;;;;;11.83;9.97;;;17.50;33.50;;;18.33;25.82;100051.59;4746596;29;124187;-91
2022/03/21 12:25:06;;;;;;;9.80;8.70;;;17.70;33.90;;;18.50;25.80;100039.53;4732670;29;122885;-90
2022/03/21 12:28:16;;;;;;;17.37;11.77;;;17.80;34.10;;;18.64;25.46;100044.88;4733485;29;112680;-93
2022/03/21 12:30:48;;;;;;;9.27;8.00;;;17.90;33.40;;;18.76;25.57;100036.66;4804391;29;112134;-89
2022/03/21 12:33:15;;;;;;;14.10;10.50;;;18.00;33.70;;;18.87;24.79;100037.91;4806945;29;124004;-91
2022/03/21 12:36:05;;;;;;;13.27;10.43;;;18.20;32.70;;;18.94;24.85;100032.59;4791214;29;122896;-91
2022/03/21 12:38:51;;;;;;;15.80;12.33;;;18.30;32.60;;;19.02;24.14;100032.88;4809879;29;114849;-92
2022/03/21 12:41:18;;;;;;;15.57;11.20;;;18.30;31.40;;;19.05;24.64;100035.81;4799045;29;113025;-92
2022/03/21 12:43:52;;;;;;;13.97;10.40;;;18.40;32.30;;;19.16;24.69;100031.47;4789391;29;122065;-91
2022/03/21 12:46:21;;;;;;;11.00;8.50;;;18.10;32.10;;;19.30;24.64;100036.00;4756410;29;123067;-91
2022/03/21 12:49:45;;;;;;;9.13;8.07;;;18.60;32.70;;;19.43;24.75;100027.31;4747304;29;113208;-91
2022/03/21 12:52:28;;;;;;;9.20;7.20;;;18.80;32.60;;;19.59;24.53;100029.50;4753337;29;113162;-93
2022/03/21 12:54:57;;;;;;;9.83;8.10;;;18.90;32.60;;;19.71;24.24;100026.75;4732939;29;122776;-90
2022/03/21 12:57:24;;;;;;;11.43;8.40;;;19.00;32.40;;;19.77;23.58;100018.97;4758308;29;123681;-92
2022/03/21 13:00:31;;;;;;;10.23;8.60;;;19.00;31.20;;;19.80;23.41;100013.50;4758879;29;114101;-94
2022/03/21 13:03:12;;;;;;;10.67;8.70;;;19.20;31.30;;;19.91;23.62;100010.25;4741829;29;112396;-94
2022/03/21 13:11:51;;;;;;;9.67;7.00;;;19.40;31.20;;;20.26;22.96;100005.91;4738462;29;115294;-94
2022/03/21 13:14:20;;;;;;;11.33;7.23;;;19.60;30.90;;;20.31;22.94;100010.50;4745970;29;113838;-92
2022/03/21 13:16:59;;;;;;;9.90;7.53;;;19.60;30.60;;;20.40;22.96;100004.75;4754987;29;123797;-92
2022/03/21 13:19:29;;;;;;;11.23;8.03;;;19.70;30.30;;;20.43;22.34;100002.06;4794528;29;122534;-94
2022/03/21 13:22:06;;;;;;;13.70;8.40;;;19.80;29.80;;;20.47;22.81;100003.03;4764450;29;112101;-91
2022/03/21 13:24:50;;;;;;;12.83;7.57;;;19.90;30.00;;;20.56;22.51;99999.31;4781218;29;112696;-92
2022/03/21 13:27:17;;;;;;;7.40;6.07;;;19.90;30.10;;;20.66;23.04;99993.22;4790700;29;123465;-92
2022/03/21 13:29:56;;;;;;;10.67;5.73;;;20.00;30.20;;;20.80;22.72;99988.06;4812665;29;124246;-91
2022/03/21 13:32:23;;;;;;;6.40;5.30;;;20.10;30.40;;;20.95;22.92;99987.38;4785959;29;112359;-94
2022/03/21 13:35:11;;;;;;;7.73;5.83;;;20.20;30.50;;;21.04;22.67;99987.22;4801076;29;113157;-95
2022/03/21 13:37:39;;;;;;;11.83;7.50;;;20.40;30.20;;;21.10;22.07;99985.00;4804224;29;124727;-92
2022/03/21 13:40:09;;;;;;;9.83;6.67;;;20.40;29.60;;;21.12;21.97;99988.28;4801009;29;123610;-92
2022/03/21 13:42:37;;;;;;;7.20;5.50;;;20.40;29.40;;;21.18;22.11;99992.47;4780580;29;114322;-93
2022/03/21 13:45:06;;;;;;;6.20;4.73;;;20.50;29.60;;;21.28;22.06;99977.91;4774265;29;113145;-91
2022/03/21 13:47:57;;;;;;;7.87;4.23;;;20.60;29.80;;;21.39;21.90;99983.91;4802067;29;123030;-93
2022/03/21 13:50:38;;;;;;;9.97;6.17;;;20.70;29.80;;;21.50;21.67;99982.22;4813081;29;123734;-94
2022/03/21 13:53:28;;;;;;;9.90;5.23;;;19.70;28.30;;;21.53;21.84;99986.31;4786687;29;114028;-94
2022/03/21 13:55:56;;;;;;;8.27;5.93;;;20.90;29.40;;;21.57;21.64;99988.06;4811027;29;113428;-93
2022/03/21 13:58:28;;;;;;;5.97;4.93;;;20.90;29.30;;;21.63;21.79;99985.81;4809872;29;123978;-92
2022/03/21 14:01:20;;;;;;;7.50;4.13;;;21.00;29.50;;;21.71;22.15;99983.97;4801282;29;124271;-91
2022/03/21 14:03:53;;;;;;;4.80;3.80;;;21.10;29.50;;;21.78;21.98;99975.75;4801355;29;114600;-92
2022/03/21 14:06:20;;;;;;;6.93;4.97;;;21.20;29.60;;;21.86;21.75;99969.16;4805347;29;114150;-92
2022/03/21 14:09:02;;;;;;;8.40;6.27;;;21.20;29.40;;;21.90;21.83;99961.63;4808945;29;123603;-92
2022/03/21 14:11:36;;;;;;;7.97;5.60;;;21.30;29.40;;;21.94;21.81;99964.53;4817977;29;123532;-93
2022/03/21 14:14:03;;;;;;;8.10;5.50;;;21.40;29.40;;;22.01;21.94;99968.38;4796315;29;113682;-93
2022/03/21 14:16:31;;;;;;;6.87;5.33;;;21.40;29.50;;;22.11;22.10;99969.00;4813971;29;115177;-91
2022/03/21 14:18:59;;;;;;;9.60;4.33;;;21.50;29.60;;;22.20;22.01;99958.44;4774022;29;124049;-92
2022/03/21 14:21:27;;;;;;;8.43;4.90;;;21.50;29.70;;;22.28;21.92;99957.44;4811702;29;123646;-92
2022/03/21 14:23:54;;;;;;;8.33;5.70;;;21.60;29.70;;;22.36;21.92;99958.44;4810929;29;114111;-91
2022/03/21 14:26:33;;;;;;;7.57;5.83;;;21.70;29.60;;;22.37;21.50;99955.25;4800413;29;112993;-93
2022/03/21 14:29:06;;;;;;;7.73;5.63;;;21.70;29.50;;;22.40;21.66;99957.31;4825679;29;124087;-94
2022/03/21 14:31:35;;;;;;;5.57;4.67;;;21.80;29.60;;;22.43;22.03;99956.63;4778397;29;124736;-93
2022/03/21 14:34:02;;;;;;;5.90;5.30;;;21.80;29.60;;;22.50;21.63;99956.78;4794206;29;112816;-92
2022/03/21 14:36:47;;;;;;;9.67;6.57;;;21.90;29.80;;;22.53;21.80;99948.78;4797881;29;113490;-92
2022/03/21 14:39:16;;;;;;;6.63;5.60;;;22.00;29.50;;;22.54;21.57;99951.25;4795447;29;123358;-93
2022/03/21 14:41:46;;;;;;;7.07;5.77;;;22.00;29.60;;;22.58;21.76;99946.50;4803013;29;123019;-94
2022/03/21 14:44:13;;;;;;;9.63;6.97;;;22.00;29.50;;;22.59;21.34;99950.13;4794088;29;114260;-93
2022/03/21 14:46:41;;;;;;;7.63;5.93;;;22.00;29.30;;;22.63;21.45;99942.59;4799941;29;115933;-93
2022/03/21 14:49:09;;;;;;;5.70;5.20;;;22.10;29.50;;;22.72;21.68;99946.03;4804032;29;123360;-92
2022/03/21 14:52:32;;;;;;;6.43;5.60;;;22.10;29.60;;;22.81;21.44;99943.84;4790256;29;122397;-94
2022/03/21 14:56:00;;;;;;;6.37;5.10;;;22.20;29.60;;;22.87;21.11;99933.09;4814153;29;113865;-96
2022/03/21 14:58:29;;;;;;;10.43;6.90;;;22.30;29.10;;;22.87;21.26;99948.00;4804082;29;114602;-94
2022/03/21 15:00:55;;;;;;;7.83;6.40;;;22.30;29.20;;;22.95;21.42;99932.06;4789754;29;124199;-92
2022/03/21 15:03:42;;;;;;;6.40;5.53;;;22.40;29.40;;;23.07;21.38;99931.97;4801125;29;124335;-94
2022/03/21 15:06:11;;;;;;;5.57;4.97;;;22.50;29.40;;;23.19;21.39;99933.03;4799714;29;114000;-93
2022/03/21 15:08:58;;;;;;;5.80;4.80;;;22.60;29.50;;;23.32;21.13;99926.88;4803349;29;113288;-94
2022/03/21 15:11:25;;;;;;;6.60;5.17;;;22.70;29.60;;;23.48;21.42;99931.59;4803874;29;124135;-92
2022/03/21 15:13:53;;;;;;;6.60;4.83;;;22.80;29.60;;;23.59;21.17;99916.53;4813842;29;123571;-95
2022/03/21 15:16:21;;;;;;;6.77;5.87;;;22.90;29.50;;;23.67;21.15;99922.31;4815048;29;113629;-94
2022/03/21 15:18:50;;;;;;;7.73;5.40;;;23.00;29.30;;;23.68;21.04;99927.59;4808092;29;114402;-93
2022/03/21 15:21:18;;;;;;;6.83;5.37;;;23.00;29.20;;;23.71;21.15;99918.41;4777411;29;122940;-94
2022/03/21 15:23:45;;;;;;;6.40;4.90;;;23.10;29.20;;;23.74;21.06;99911.19;4779647;29;124011;-94
2022/03/21 15:26:14;;;;;;;4.93;4.47;;;23.20;29.20;;;23.81;21.05;99917.78;4810398;29;114261;-93
2022/03/21 15:28:40;;;;;;;5.23;4.37;;;23.30;29.30;;;23.86;21.12;99915.84;4813055;29;114615;-91
2022/03/21 15:31:07;;;;;;;5.57;4.50;;;23.30;29.30;;;23.94;21.04;99911.97;4809015;29;122120;-92
2022/03/21 15:33:34;;;;;;;5.40;4.37;;;23.40;29.30;;;24.02;21.05;99908.09;4794543;29;124006;-95
2022/03/21 15:41:40;;;;;;;6.90;6.17;;;23.60;29.00;;;24.00;20.62;99916.94;4802954;29;125112;-92
2022/03/21 15:44:27;;;;;;;7.30;6.43;;;23.50;28.70;;;23.81;20.59;99914.16;4796308;29;121949;-94
2022/03/21 15:46:53;;;;;;;7.10;5.17;;;23.50;28.50;;;23.78;20.91;99912.09;4804091;29;114525;-92
2022/03/21 15:49:20;;;;;;;7.20;5.30;;;23.40;28.70;;;23.80;20.98;99916.16;4799712;29;114900;-93
2022/03/21 15:51:49;;;;;;;10.50;5.60;;;23.40;29.30;;;23.76;20.69;99915.28;4808700;29;123580;-93
2022/03/21 15:54:16;;;;;;;8.00;6.20;;;23.30;28.60;;;23.67;20.56;99911.84;4805088;29;123419;-94
2022/03/21 15:57:01;;;;;;;7.70;5.83;;;23.30;28.10;;;23.54;20.75;99918.84;4799302;29;114606;-94
2022/03/21 15:59:30;;;;;;;7.90;6.27;;;23.30;28.30;;;23.52;20.79;99918.41;4800686;29;113275;-95
2022/03/21 16:01:58;;;;;;;7.50;5.53;;;23.20;28.40;;;23.52;20.95;99910.75;4803742;29;122050;-92
2022/03/21 16:04:24;;;;;;;7.00;4.90;;;23.10;28.50;;;23.54;20.75;99918.84;4808626;29;124129;-93
2022/03/21 16:07:29;;;;;;;5.10;4.00;;;23.10;28.50;;;23.50;20.64;99913.13;4816492;29;113934;-94
2022/03/21 16:09:57;;;;;;;6.80;4.77;;;23.20;28.40;;;23.46;20.79;99911.44;4809312;29;113033;-93
2022/03/21 16:12:23;;;;;;;5.63;4.50;;;23.10;28.40;;;23.44;20.77;99919.44;4800738;29;124433;-92
2022/03/21 16:14:50;;;;;;;4.43;4.03;;;23.10;28.40;;;23.40;21.13;99908.09;4804937;29;123827;-94
2022/03/21 16:17:18;;;;;;;5.83;4.63;;;23.00;28.30;;;23.35;20.78;99914.84;4811382;29;114936;-94
2022/03/21 16:20:09;;;;;;;5.10;4.00;;;23.00;28.30;;;23.28;20.78;99911.06;4807536;29;113847;-93
2022/03/21 16:22:36;;;;;;;5.90;3.83;;;22.90;28.20;;;23.20;20.96;99904.44;4802759;29;123147;-94
2022/03/21 16:25:03;;;;;;;6.53;4.10;;;22.90;28.30;;;23.15;20.65;99910.38;4814746;29;123881;-94
2022/03/21 16:27:31;;;;;;;5.57;4.40;;;22.80;28.20;;;23.06;20.62;99907.78;4815481;29;114958;-92
2022/03/21 16:29:58;;;;;;;4.90;4.33;;;22.70;28.10;;;22.98;21.01;99913.66;4807717;29;113528;-92
2022/03/21 16:33:02;;;;;;;5.77;4.57;;;22.70;28.10;;;22.84;20.66;99908.47;4820750;29;124178;-87
2022/03/21 16:35:29;;;;;;;5.40;4.10;;;22.60;28.10;;;22.77;20.94;99914.75;4795153;29;122806;-92
2022/03/21 16:38:53;;;;;;;6.73;4.10;;;22.50;28.10;;;22.64;20.90;99916.06;4816877;29;114691;-93
2022/03/21 16:41:22;;;;;;;7.40;4.33;;;22.40;28.00;;;22.55;20.91;99912.63;4810449;29;114184;-92
2022/03/21 16:43:50;;;;;;;5.10;4.10;;;22.20;28.30;;;22.47;21.14;99917.28;4783663;29;124286;-94
2022/03/21 16:46:56;;;;;;;7.13;4.87;;;22.20;28.00;;;22.32;21.32;99921.72;4821826;29;122854;-86
2022/03/21 16:50:02;;;;;;;5.00;3.80;;;22.10;28.00;;;22.20;21.21;99928.28;4821014;29;113621;-93
2022/03/21 16:52:29;;;;;;;6.27;3.80;;;22.00;28.10;;;22.13;21.38;99918.78;4820104;29;113830;-89
2022/03/21 16:54:56;;;;;;;5.80;4.93;;;21.80;28.00;;;22.03;21.16;99915.34;4817635;29;122595;-91
2022/03/21 16:57:22;;;;;;;7.27;4.63;;;21.70;28.10;;;21.95;21.40;99921.97;4805922;29;124240;-92
2022/03/21 16:59:51;;;;;;;6.90;5.37;;;21.70;28.10;;;21.86;21.20;99926.13;4813910;29;114765;-92
2022/03/21 17:02:21;;;;;;;5.40;4.20;;;21.60;28.10;;;21.76;21.07;99924.66;4801620;29;113829;-94
2022/03/21 17:04:50;;;;;;;5.20;4.70;;;21.50;28.10;;;21.66;21.26;99934.44;4802072;29;124086;-92
2022/03/21 17:07:20;;;;;;;5.77;4.77;;;21.40;28.00;;;21.55;21.03;99928.53;4800112;29;123956;-91
2022/03/21 17:09:47;;;;;;;5.03;4.00;;;21.30;28.00;;;21.46;21.38;99925.03;4800636;29;114248;-92
2022/03/21 17:12:15;;;;;;;5.63;4.23;;;21.20;28.00;;;21.37;21.60;99924.34;4811258;29;114204;-92
2022/03/21 17:14:44;;;;;;;4.90;4.40;;;21.10;28.00;;;21.27;21.23;99931.28;4804497;29;123627;-92
2022/03/21 17:17:31;;;;;;;6.20;4.00;;;21.00;28.00;;;21.14;21.39;99929.69;4798126;29;123729;-88
2022/03/21 17:23:22;;;;;;;5.80;4.70;;;20.80;28.50;;;20.83;21.62;99919.94;4809318;29;115276;-92
2022/03/21 17:26:12;;;;;;;5.67;3.83;;;20.60;27.90;;;20.72;21.80;99925.22;4770060;29;97675;-91
2022/03/21 17:28:44;;;;;;;4.60;4.00;;;20.50;28.00;;;20.63;21.83;99927.34;4797338;29;123107;-92
2022/03/21 17:31:12;;;;;;;4.70;3.90;;;20.30;28.00;;;20.54;21.76;99928.63;4802028;29;113266;-94
2022/03/21 17:33:40;;;;;;;5.80;4.27;;;20.20;28.00;;;20.43;21.79;99936.69;4800012;29;114561;-90
2022/03/21 17:36:10;;;;;;;12.13;5.20;;;20.20;28.20;;;20.34;22.07;99942.41;4812517;29;124229;-91
2022/03/21 17:38:39;;;;;;;7.73;4.30;;;20.00;28.10;;;20.24;21.99;99938.06;4814491;29;122767;-93
2022/03/21 17:41:46;;;;;;;5.70;4.30;;;20.00;28.20;;;20.09;22.14;99935.94;4822092;29;114104;-93
2022/03/21 17:44:14;;;;;;;6.70;4.40;;;19.80;28.20;;;19.99;22.35;99936.41;4794598;29;114072;-92
2022/03/21 17:50:27;;;;;;;6.27;4.70;;;19.60;28.40;;;19.71;22.34;99945.44;4825463;29;124763;-93
2022/03/21 17:56:35;;;;;;;6.00;4.53;;;19.30;28.50;;;19.46;22.90;99952.13;4827558;29;115041;-86
2022/03/21 17:59:06;;;;;;;4.40;4.00;;;19.20;28.60;;;19.37;22.71;99955.81;4808813;29;123576;-93
2022/03/21 18:02:11;;;;;;;5.37;4.33;;;19.10;28.70;;;19.25;22.97;99952.13;4811748;29;122829;-76
2022/03/21 18:04:57;;;;;;;6.30;4.40;;;19.00;28.80;;;19.13;22.98;99959.31;4808570;29;114182;-89
2022/03/21 18:07:24;;;;;;;5.77;4.60;;;18.90;28.80;;;19.05;23.03;99956.53;4820734;29;113323;-91
2022/03/21 18:09:51;;;;;;;11.03;4.53;;;18.70;28.80;;;18.93;23.27;99958.13;4817781;29;123237;-91
2022/03/21 18:13:14;;;;;;;7.10;5.00;;;18.60;28.90;;;18.81;23.36;99951.63;4810345;29;123492;-92
2022/03/21 18:26:23;;;;;;;10.03;5.00;;;18.20;29.30;;;18.29;23.89;99963.88;4822754;29;124870;-92
2022/03/21 18:32:32;;;;;;;6.47;5.00;;;17.90;29.50;;;18.12;24.07;99977.94;4827384;29;115913;-79
2022/03/21 18:38:41;;;;;;;7.20;4.97;;;17.70;29.70;;;17.90;24.21;99982.63;4827853;29;124781;-80
2022/03/21 18:44:53;;;;;;;7.20;5.30;;;17.50;29.80;;;17.71;24.43;99985.75;4828112;29;115071;-80
2022/03/21 18:47:22;;;;;;;5.50;4.23;;;17.40;29.90;;;17.63;24.58;99990.19;4828008;29;125071;-89
2022/03/21 18:53:31;;;;;;;5.17;4.40;;;17.20;30.00;;;17.44;24.76;99990.53;4813853;29;115367;-93
2022/03/21 18:56:00;;;;;;;17.93;4.67;;;17.10;30.00;;;17.39;24.55;99987.09;4826765;29;114750;-87
2022/03/21 19:02:09;;;;;;;8.00;5.50;;;17.00;30.20;;;17.22;25.05;99997.09;4838040;29;124944;-92
2022/03/21 19:05:15;;;;;;;7.07;5.37;;;16.80;30.20;;;17.17;25.02;100010.41;4826456;29;114122;-89
2022/03/21 19:11:24;;;;;;;7.70;5.63;;;16.70;31.20;;;17.02;25.26;100006.09;4816529;29;125000;-81
2022/03/21 19:18:31;;;;;;;5.90;4.97;;;16.50;30.60;;;16.85;25.25;100006.09;4827827;29;115483;-92
2022/03/21 19:28:34;;;;;;;5.83;4.70;;;16.20;30.70;;;16.62;25.40;100011.72;4827311;29;124751;-80
2022/03/21 19:31:58;;;;;;;5.23;4.73;;;15.90;30.70;;;16.57;25.56;100014.66;4824076;29;116012;-82
2022/03/21 19:41:54;;;;;;;6.67;4.43;;;15.80;30.70;;;16.42;25.55;100018.72;4849019;29;124873;-78
2022/03/21 19:48:07;;;;;;;5.20;4.53;;;15.80;30.90;;;16.30;25.60;100033.25;4849098;29;116957;-78
2022/03/21 19:54:16;;;;;;;6.73;4.90;;;15.80;31.00;;;16.18;25.69;100021.88;4836348;29;124786;-92
2022/03/21 19:56:44;;;;;;;7.43;5.00;;;15.50;30.80;;;16.15;25.79;100019.72;4836071;29;114136;-88
2022/03/21 20:03:30;;;;;;;8.07;5.17;;;15.60;30.80;;;16.02;25.45;100026.22;4829111;29;124388;-82
2022/03/21 20:09:40;;;;;;;6.50;5.00;;;14.00;29.30;;;15.89;25.25;100039.91;4840649;29;115196;-85
2022/03/21 20:15:48;;;;;;;5.70;4.80;;;15.30;30.10;;;15.81;25.11;100037.06;4847458;29;124414;-90
2022/03/21 20:35:59;;;;;;;7.47;5.90;;;15.10;30.00;;;15.58;25.13;100038.97;5115966;27;96382;-96
2022/03/21 20:38:28;;;;;;;7.00;5.93;;;14.90;30.00;;;15.55;25.12;100039.59;5064583;27;105917;-95
2022/03/21 20:41:13;;;;;;;7.67;5.83;;;14.90;29.90;;;15.53;25.16;100037.16;5087780;27;123414;-95
2022/03/21 20:43:40;;;;;;;6.23;5.00;;;15.00;30.00;;;15.51;25.26;100038.59;5073806;27;123724;-91
2022/03/21 20:46:09;;;;;;;6.10;4.73;;;14.80;30.00;;;15.44;25.10;100045.41;5080828;27;107011;-94
2022/03/21 20:48:37;;;;;;;7.30;5.50;;;14.80;30.00;;;15.44;25.43;100045.41;5073261;27;106616;-95
2022/03/21 20:51:04;;;;;;;6.77;5.03;;;14.80;30.00;;;15.43;25.31;100046.56;5068520;27;122836;-94